Maybole, United Kingdom
Current Conditions -  °F | °C
As of 4:20 PM on Saturday 22 Nov 2014 (Local Time) from EGPK Reporting Station
Scattered Clouds Scattered Clouds  
Wind Chill: 52°   Ceiling: Unl
Heat Index: 52°   Visibility: 6mi
Dew Point: 48°   Wind: 7mph
Humidity: 88%   Direction: 240°WSW
Pressure: 29.83"   Gusts: NA
Location:  55.36°N, 4.68°W
Report Text: EGPK 221620Z 24006KT 9999 FEW025 SCT038 11/09 Q1010
Loading
Personal Weather Stations






























Interactive Weather Map New forecast layout! Learn more

10-Day Weather Forecast

Advertisements
Track Severe Weather on mobile